sensor_id;sensor_type;location;lat;lon;timestamp;pressure;altitude;pressure_sealevel;temperature;humidity
33913;BME280;20200;52.084;5.224;2023-02-22T00:01:18;152927.0;;;16.52;45.48
33913;BME280;20200;52.084;5.224;2023-02-22T00:02:58;153000.0;;;16.81;45.19
33913;BME280;20200;52.084;5.224;2023-02-22T00:04:35;152969.0;;;16.7;45.15
33913;BME280;20200;52.084;5.224;2023-02-22T00:06:15;152931.0;;;16.54;45.36
33913;BME280;20200;52.084;5.224;2023-02-22T00:09:33;152840.0;;;16.18;46.23
33913;BME280;20200;52.084;5.224;2023-02-22T00:11:10;152807.0;;;16.05;46.53
33913;BME280;20200;52.084;5.224;2023-02-22T00:12:48;153022.0;;;16.9;44.78
33913;BME280;20200;52.084;5.224;2023-02-22T00:16:03;153048.0;;;17.02;44.64
33913;BME280;20200;52.084;5.224;2023-02-22T00:17:41;153019.0;;;16.89;44.74
33913;BME280;20200;52.084;5.224;2023-02-22T00:19:18;152964.0;;;16.68;45.1
33913;BME280;20200;52.084;5.224;2023-02-22T00:20:54;152887.0;;;16.36;45.9
33913;BME280;20200;52.084;5.224;2023-02-22T00:24:22;152872.0;;;16.31;46.07
33913;BME280;20200;52.084;5.224;2023-02-22T00:25:59;152758.0;;;15.85;46.98
33913;BME280;20200;52.084;5.224;2023-02-22T00:27:35;152820.0;;;16.11;46.58
33913;BME280;20200;52.084;5.224;2023-02-22T00:29:11;152944.0;;;16.59;45.46
33913;BME280;20200;52.084;5.224;2023-02-22T00:32:25;152982.0;;;16.75;45.21
33913;BME280;20200;52.084;5.224;2023-02-22T00:34:01;153032.0;;;16.95;44.92
33913;BME280;20200;52.084;5.224;2023-02-22T00:35:37;152911.0;;;16.46;45.77
33913;BME280;20200;52.084;5.224;2023-02-22T00:38:50;152955.0;;;16.63;45.31
33913;BME280;20200;52.084;5.224;2023-02-22T00:40:28;152860.0;;;16.27;45.45
33913;BME280;20200;52.084;5.224;2023-02-22T00:42:06;152969.0;;;16.7;45.28
33913;BME280;20200;52.084;5.224;2023-02-22T00:45:20;152934.0;;;16.55;45.58
33913;BME280;20200;52.084;5.224;2023-02-22T00:46:59;152925.0;;;16.52;45.54
33913;BME280;20200;52.084;5.224;2023-02-22T00:48:35;152866.0;;;16.28;46.11
33913;BME280;20200;52.084;5.224;2023-02-22T00:50:12;152880.0;;;16.34;45.97
33913;BME280;20200;52.084;5.224;2023-02-22T00:53:27;152978.0;;;16.73;45.07
33913;BME280;20200;52.084;5.224;2023-02-22T00:55:07;152890.0;;;16.38;45.67
33913;BME280;20200;52.084;5.224;2023-02-22T00:56:44;152889.0;;;16.37;45.75
33913;BME280;20200;52.084;5.224;2023-02-22T00:59:57;152795.0;;;16.0;46.37
33913;BME280;20200;52.084;5.224;2023-02-22T01:01:33;152661.0;;;15.47;47.72
33913;BME280;20200;52.084;5.224;2023-02-22T01:03:12;152795.0;;;16.0;46.49
33913;BME280;20200;52.084;5.224;2023-02-22T01:04:52;152746.0;;;15.8;47.03
33913;BME280;20200;52.084;5.224;2023-02-22T01:08:06;152798.0;;;16.02;46.42
33913;BME280;20200;52.084;5.224;2023-02-22T01:09:44;152873.0;;;16.31;45.97
33913;BME280;20200;52.084;5.224;2023-02-22T01:11:21;152917.0;;;16.48;45.45
33913;BME280;20200;52.084;5.224;2023-02-22T01:14:36;152960.0;;;16.65;45.09
33913;BME280;20200;52.084;5.224;2023-02-22T01:16:12;152734.0;;;15.76;46.66
33913;BME280;20200;52.084;5.224;2023-02-22T01:17:50;152658.0;;;15.45;47.8
33913;BME280;20200;52.084;5.224;2023-02-22T01:19:27;152697.0;;;15.62;47.56
33913;BME280;20200;52.084;5.224;2023-02-22T01:22:42;152759.0;;;15.87;47.17
33913;BME280;20200;52.084;5.224;2023-02-22T01:24:21;152853.0;;;16.23;46.35
33913;BME280;20200;52.084;5.224;2023-02-22T01:25:57;152760.0;;;15.87;46.87
33913;BME280;20200;52.084;5.224;2023-02-22T01:29:15;152788.0;;;15.97;46.48
33913;BME280;20200;52.084;5.224;2023-02-22T01:30:55;152555.0;;;15.04;48.47
33913;BME280;20200;52.084;5.224;2023-02-22T01:32:33;152499.0;;;14.82;48.94
33913;BME280;20200;52.084;5.224;2023-02-22T01:34:12;152650.0;;;15.42;47.46
33913;BME280;20200;52.084;5.224;2023-02-22T01:37:26;152477.0;;;14.74;48.62
33913;BME280;20200;52.084;5.224;2023-02-22T01:39:02;152705.0;;;15.64;46.95
33913;BME280;20200;52.084;5.224;2023-02-22T01:40:40;152778.0;;;15.93;45.99
33913;BME280;20200;52.084;5.224;2023-02-22T01:43:53;152795.0;;;16.0;45.77
33913;BME280;20200;52.084;5.224;2023-02-22T01:45:42;152712.0;;;15.67;46.47
33913;BME280;20200;52.084;5.224;2023-02-22T01:47:39;152711.0;;;15.66;46.25
33913;BME280;20200;52.084;5.224;2023-02-22T01:49:16;152731.0;;;15.75;46.56
33913;BME280;20200;52.084;5.224;2023-02-22T01:50:54;152782.0;;;15.95;46.12
33913;BME280;20200;52.084;5.224;2023-02-22T01:54:16;152622.0;;;15.31;47.1
33913;BME280;20200;52.084;5.224;2023-02-22T01:55:55;152580.0;;;15.14;47.33
33913;BME280;20200;52.084;5.224;2023-02-22T01:57:35;152586.0;;;15.17;47.21
33913;BME280;20200;52.084;5.224;2023-02-22T01:59:12;152629.0;;;15.34;46.8
33913;BME280;20200;52.084;5.224;2023-02-22T02:02:26;152649.0;;;15.42;46.65
33913;BME280;20200;52.084;5.224;2023-02-22T02:04:06;152671.0;;;15.51;46.26
33913;BME280;20200;52.084;5.224;2023-02-22T02:05:47;152549.0;;;15.02;46.95
33913;BME280;20200;52.084;5.224;2023-02-22T02:09:07;152457.0;;;14.66;47.68
33913;BME280;20200;52.084;5.224;2023-02-22T02:10:47;152635.0;;;15.36;46.42
33913;BME280;20200;52.084;5.224;2023-02-22T02:12:27;152628.0;;;15.34;46.27
33913;BME280;20200;52.084;5.224;2023-02-22T02:14:06;152539.0;;;14.98;47.13
33913;BME280;20200;52.084;5.224;2023-02-22T02:17:20;152488.0;;;14.78;47.31
33913;BME280;20200;52.084;5.224;2023-02-22T02:18:58;152649.0;;;15.42;46.42
33913;BME280;20200;52.084;5.224;2023-02-22T02:20:39;152398.0;;;14.42;48.27
33913;BME280;20200;52.084;5.224;2023-02-22T02:22:37;152474.0;;;14.72;47.36
33913;BME280;20200;52.084;5.224;2023-02-22T02:24:35;152313.0;;;14.08;48.31
33913;BME280;20200;52.084;5.224;2023-02-22T02:27:16;152437.0;;;14.58;47.78
33913;BME280;20200;52.084;5.224;2023-02-22T02:32:51;152623.0;;;15.32;45.96
33913;BME280;20200;52.084;5.224;2023-02-22T02:36:20;152736.0;;;15.76;45.05
33913;BME280;20200;52.084;5.224;2023-02-22T02:38:06;152705.0;;;15.64;45.09
33913;BME280;20200;52.084;5.224;2023-02-22T02:39:50;152596.0;;;15.21;45.83
33913;BME280;20200;52.084;5.224;2023-02-22T02:41:35;152542.0;;;14.99;46.66
33913;BME280;20200;52.084;5.224;2023-02-22T02:43:18;152637.0;;;15.37;45.81
33913;BME280;20200;52.084;5.224;2023-02-22T02:46:49;152473.0;;;14.72;47.28
33913;BME280;20200;52.084;5.224;2023-02-22T02:48:32;152467.0;;;14.69;47.31
33913;BME280;20200;52.084;5.224;2023-02-22T02:50:16;152446.0;;;14.61;47.41
33913;BME280;20200;52.084;5.224;2023-02-22T02:51:55;152485.0;;;14.77;47.23
33913;BME280;20200;52.084;5.224;2023-02-22T02:53:35;152603.0;;;15.23;46.27
33913;BME280;20200;52.084;5.224;2023-02-22T02:56:52;152496.0;;;14.81;46.88
33913;BME280;20200;52.084;5.224;2023-02-22T02:58:31;152654.0;;;15.44;45.56
33913;BME280;20200;52.084;5.224;2023-02-22T03:00:26;152620.0;;;15.31;45.79
33913;BME280;20200;52.084;5.224;2023-02-22T03:02:12;152661.0;;;15.47;45.37
33913;BME280;20200;52.084;5.224;2023-02-22T03:04:23;152587.0;;;15.17;45.92
33913;BME280;20200;52.084;5.224;2023-02-22T03:06:12;152498.0;;;14.82;46.81
33913;BME280;20200;52.084;5.224;2023-02-22T03:08:19;152417.0;;;14.5;47.7
33913;BME280;20200;52.084;5.224;2023-02-22T03:12:09;152448.0;;;14.62;47.26
33913;BME280;20200;52.084;5.224;2023-02-22T03:14:00;152544.0;;;15.0;46.65
33913;BME280;20200;52.084;5.224;2023-02-22T03:15:49;152448.0;;;14.62;47.56
33913;BME280;20200;52.084;5.224;2023-02-22T03:17:37;152427.0;;;14.54;47.34
33913;BME280;20200;52.084;5.224;2023-02-22T03:19:20;152487.0;;;14.78;47.08
33913;BME280;20200;52.084;5.224;2023-02-22T03:21:09;152526.0;;;14.93;46.83
33913;BME280;20200;52.084;5.224;2023-02-22T03:22:56;152532.0;;;14.95;46.85
33913;BME280;20200;52.084;5.224;2023-02-22T03:26:28;152596.0;;;15.21;46.21
33913;BME280;20200;52.084;5.224;2023-02-22T03:28:13;152317.0;;;14.1;48.23
33913;BME280;20200;52.084;5.224;2023-02-22T03:29:55;152356.0;;;14.25;48.26
33913;BME280;20200;52.084;5.224;2023-02-22T03:31:39;152338.0;;;14.18;48.16
33913;BME280;20200;52.084;5.224;2023-02-22T03:33:23;152386.0;;;14.37;48.04
33913;BME280;20200;52.084;5.224;2023-02-22T03:36:46;152366.0;;;14.3;48.31
33913;BME280;20200;52.084;5.224;2023-02-22T03:38:27;152379.0;;;14.34;48.19
33913;BME280;20200;52.084;5.224;2023-02-22T03:40:17;152375.0;;;14.34;48.22
33913;BME280;20200;52.084;5.224;2023-02-22T03:41:55;152420.0;;;14.51;47.85
33913;BME280;20200;52.084;5.224;2023-02-22T03:45:18;152404.0;;;14.44;48.13
33913;BME280;20200;52.084;5.224;2023-02-22T03:46:58;152473.0;;;14.72;47.61
33913;BME280;20200;52.084;5.224;2023-02-22T03:48:42;152517.0;;;14.9;47.19
33913;BME280;20200;52.084;5.224;2023-02-22T03:50:26;152555.0;;;15.04;46.91
33913;BME280;20200;52.084;5.224;2023-02-22T03:52:07;152577.0;;;15.13;46.65
33913;BME280;20200;52.084;5.224;2023-02-22T03:55:22;152639.0;;;15.38;46.21
33913;BME280;20200;52.084;5.224;2023-02-22T03:57:04;152519.0;;;14.9;47.07
33913;BME280;20200;52.084;5.224;2023-02-22T03:58:45;152583.0;;;15.16;46.64
33913;BME280;20200;52.084;5.224;2023-02-22T04:00:28;152466.0;;;14.69;47.77
33913;BME280;20200;52.084;5.224;2023-02-22T04:03:42;152521.0;;;14.91;47.12
33913;BME280;20200;52.084;5.224;2023-02-22T04:05:20;152513.0;;;14.88;47.34
33913;BME280;20200;52.084;5.224;2023-02-22T04:06:56;152451.0;;;14.63;47.75
33913;BME280;20200;52.084;5.224;2023-02-22T04:10:11;152354.0;;;14.25;48.69
33913;BME280;20200;52.084;5.224;2023-02-22T04:11:51;152285.0;;;13.97;49.47
33913;BME280;20200;52.084;5.224;2023-02-22T04:13:27;152426.0;;;14.53;48.42
33913;BME280;20200;52.084;5.224;2023-02-22T04:15:06;152457.0;;;14.65;48.08
33913;BME280;20200;52.084;5.224;2023-02-22T04:18:19;152494.0;;;14.8;47.75
33913;BME280;20200;52.084;5.224;2023-02-22T04:19:57;152553.0;;;15.04;47.29
33913;BME280;20200;52.084;5.224;2023-02-22T04:24:48;152604.0;;;15.24;46.68
33913;BME280;20200;52.084;5.224;2023-02-22T04:26:24;152626.0;;;15.33;46.47
33913;BME280;20200;52.084;5.224;2023-02-22T04:28:02;152604.0;;;15.24;46.58
33913;BME280;20200;52.084;5.224;2023-02-22T04:31:15;152617.0;;;15.29;46.74
33913;BME280;20200;52.084;5.224;2023-02-22T04:32:51;152525.0;;;14.93;47.24
33913;BME280;20200;52.084;5.224;2023-02-22T04:34:28;152528.0;;;14.94;47.38
33913;BME280;20200;52.084;5.224;2023-02-22T04:36:05;152473.0;;;14.72;47.75
33913;BME280;20200;52.084;5.224;2023-02-22T04:39:17;152624.0;;;15.32;46.67
33913;BME280;20200;52.084;5.224;2023-02-22T04:40:54;152578.0;;;15.13;46.98
33913;BME280;20200;52.084;5.224;2023-02-22T04:42:29;152522.0;;;14.91;47.5
33913;BME280;20200;52.084;5.224;2023-02-22T04:45:42;152572.0;;;15.11;47.04
33913;BME280;20200;52.084;5.224;2023-02-22T04:47:18;152482.0;;;14.76;47.68
33913;BME280;20200;52.084;5.224;2023-02-22T04:48:54;152545.0;;;15.01;47.31
33913;BME280;20200;52.084;5.224;2023-02-22T04:52:06;152390.0;;;14.39;48.84
33913;BME280;20200;52.084;5.224;2023-02-22T04:53:42;152484.0;;;14.76;47.68
33913;BME280;20200;52.084;5.224;2023-02-22T04:55:20;152592.0;;;15.19;47.03
33913;BME280;20200;52.084;5.224;2023-02-22T04:56:56;152541.0;;;14.99;47.3
33913;BME280;20200;52.084;5.224;2023-02-22T05:00:14;152473.0;;;14.72;48.04
33913;BME280;20200;52.084;5.224;2023-02-22T05:01:51;152546.0;;;15.01;47.51
33913;BME280;20200;52.084;5.224;2023-02-22T05:03:28;152454.0;;;14.64;48.12
33913;BME280;20200;52.084;5.224;2023-02-22T05:06:42;152526.0;;;14.93;47.54
33913;BME280;20200;52.084;5.224;2023-02-22T05:08:18;152501.0;;;14.83;47.78
33913;BME280;20200;52.084;5.224;2023-02-22T05:09:54;152472.0;;;14.72;48.02
33913;BME280;20200;52.084;5.224;2023-02-22T05:13:06;152520.0;;;14.91;47.69
33913;BME280;20200;52.084;5.224;2023-02-22T05:14:43;152459.0;;;14.66;48.34
33913;BME280;20200;52.084;5.224;2023-02-22T05:16:20;152549.0;;;15.02;47.57
33913;BME280;20200;52.084;5.224;2023-02-22T05:17:56;152561.0;;;15.07;47.4
33913;BME280;20200;52.084;5.224;2023-02-22T05:21:08;152561.0;;;15.07;47.41
33913;BME280;20200;52.084;5.224;2023-02-22T05:22:45;152544.0;;;15.0;47.57
33913;BME280;20200;52.084;5.224;2023-02-22T05:24:21;152557.0;;;15.05;47.45
33913;BME280;20200;52.084;5.224;2023-02-22T05:27:33;152516.0;;;14.89;47.8
33913;BME280;20200;52.084;5.224;2023-02-22T05:29:10;152555.0;;;15.04;47.65
33913;BME280;20200;52.084;5.224;2023-02-22T05:30:47;152573.0;;;15.12;47.45
33913;BME280;20200;52.084;5.224;2023-02-22T05:33:59;152612.0;;;15.27;47.05
33913;BME280;20200;52.084;5.224;2023-02-22T05:35:36;152560.0;;;15.07;47.7
33913;BME280;20200;52.084;5.224;2023-02-22T05:37:12;152496.0;;;14.81;48.42
33913;BME280;20200;52.084;5.224;2023-02-22T05:38:48;152519.0;;;14.9;48.0
33913;BME280;20200;52.084;5.224;2023-02-22T05:42:03;152538.0;;;14.98;47.8
33913;BME280;20200;52.084;5.224;2023-02-22T05:43:39;152305.0;;;14.05;49.75
33913;BME280;20200;52.084;5.224;2023-02-22T05:45:17;152405.0;;;14.45;49.17
33913;BME280;20200;52.084;5.224;2023-02-22T05:48:32;152421.0;;;14.51;48.8
33913;BME280;20200;52.084;5.224;2023-02-22T05:50:09;152489.0;;;14.78;48.37
33913;BME280;20200;52.084;5.224;2023-02-22T05:51:46;152396.0;;;14.41;49.48
33913;BME280;20200;52.084;5.224;2023-02-22T05:54:59;152434.0;;;14.56;48.84
33913;BME280;20200;52.084;5.224;2023-02-22T05:56:35;152453.0;;;14.64;48.75
33913;BME280;20200;52.084;5.224;2023-02-22T05:58:12;152493.0;;;14.8;48.5
33913;BME280;20200;52.084;5.224;2023-02-22T05:59:48;152525.0;;;14.93;48.29
33913;BME280;20200;52.084;5.224;2023-02-22T06:03:04;152335.0;;;14.17;49.91
33913;BME280;20200;52.084;5.224;2023-02-22T06:04:43;152482.0;;;14.75;48.86
33913;BME280;20200;52.084;5.224;2023-02-22T06:06:19;152459.0;;;14.66;48.97
33913;BME280;20200;52.084;5.224;2023-02-22T06:09:32;152522.0;;;14.91;48.39
33913;BME280;20200;52.084;5.224;2023-02-22T06:11:08;152496.0;;;14.81;48.52
33913;BME280;20200;52.084;5.224;2023-02-22T06:12:46;152438.0;;;14.58;49.29
33913;BME280;20200;52.084;5.224;2023-02-22T06:14:25;152487.0;;;14.77;48.91
33913;BME280;20200;52.084;5.224;2023-02-22T06:17:38;152284.0;;;13.97;50.89
33913;BME280;20200;52.084;5.224;2023-02-22T06:19:17;152388.0;;;14.38;49.97
33913;BME280;20200;52.084;5.224;2023-02-22T06:20:53;152427.0;;;14.54;49.48
33913;BME280;20200;52.084;5.224;2023-02-22T06:24:06;152464.0;;;14.68;49.31
33913;BME280;20200;52.084;5.224;2023-02-22T06:25:42;152469.0;;;14.7;49.15
33913;BME280;20200;52.084;5.224;2023-02-22T06:27:18;152533.0;;;14.96;48.69
33913;BME280;20200;52.084;5.224;2023-02-22T06:30:30;152493.0;;;14.8;48.91
33913;BME280;20200;52.084;5.224;2023-02-22T06:32:06;152480.0;;;14.75;49.16
33913;BME280;20200;52.084;5.224;2023-02-22T06:33:42;152482.0;;;14.75;49.15
33913;BME280;20200;52.084;5.224;2023-02-22T06:35:19;152531.0;;;14.95;48.74
33913;BME280;20200;52.084;5.224;2023-02-22T06:38:32;152537.0;;;14.97;48.7
33913;BME280;20200;52.084;5.224;2023-02-22T06:40:11;152498.0;;;14.82;48.91
33913;BME280;20200;52.084;5.224;2023-02-22T06:41:49;152560.0;;;15.07;48.46
33913;BME280;20200;52.084;5.224;2023-02-22T06:45:02;152558.0;;;15.06;48.35
33913;BME280;20200;52.084;5.224;2023-02-22T06:46:39;152584.0;;;15.16;48.04
33913;BME280;20200;52.084;5.224;2023-02-22T06:48:21;152570.0;;;15.1;48.19
33913;BME280;20200;52.084;5.224;2023-02-22T06:49:58;152495.0;;;14.81;48.76
33913;BME280;20200;52.084;5.224;2023-02-22T06:53:12;152491.0;;;14.79;48.79
33913;BME280;20200;52.084;5.224;2023-02-22T06:54:50;152496.0;;;14.81;48.85
33913;BME280;20200;52.084;5.224;2023-02-22T06:56:26;152476.0;;;14.73;48.93
33913;BME280;20200;52.084;5.224;2023-02-22T06:59:41;152460.0;;;14.67;49.05
33913;BME280;20200;52.084;5.224;2023-02-22T07:01:17;152459.0;;;14.66;49.03
33913;BME280;20200;52.084;5.224;2023-02-22T07:02:55;152464.0;;;14.68;48.85
33913;BME280;20200;52.084;5.224;2023-02-22T07:04:31;152424.0;;;14.52;49.35
33913;BME280;20200;52.084;5.224;2023-02-22T07:07:45;152470.0;;;14.71;49.1
33913;BME280;20200;52.084;5.224;2023-02-22T07:09:23;152504.0;;;14.84;48.82
33913;BME280;20200;52.084;5.224;2023-02-22T07:11:00;152534.0;;;14.96;48.66
33913;BME280;20200;52.084;5.224;2023-02-22T07:14:15;152604.0;;;15.24;48.11
33913;BME280;20200;52.084;5.224;2023-02-22T07:15:52;152576.0;;;15.13;48.39
33913;BME280;20200;52.084;5.224;2023-02-22T07:17:28;152628.0;;;15.33;47.8
33913;BME280;20200;52.084;5.224;2023-02-22T07:20:41;152519.0;;;14.9;48.59
33913;BME280;20200;52.084;5.224;2023-02-22T07:22:18;152609.0;;;15.26;48.07
33913;BME280;20200;52.084;5.224;2023-02-22T07:23:56;152506.0;;;14.85;48.79
33913;BME280;20200;52.084;5.224;2023-02-22T07:25:33;152493.0;;;14.8;49.09
33913;BME280;20200;52.084;5.224;2023-02-22T07:28:46;152524.0;;;14.92;48.84
33913;BME280;20200;52.084;5.224;2023-02-22T07:30:25;152606.0;;;15.25;48.17
33913;BME280;20200;52.084;5.224;2023-02-22T07:32:03;152553.0;;;15.04;48.47
33913;BME280;20200;52.084;5.224;2023-02-22T07:35:19;152644.0;;;15.4;47.76
33913;BME280;20200;52.084;5.224;2023-02-22T07:36:57;152485.0;;;14.77;49.18
33913;BME280;20200;52.084;5.224;2023-02-22T07:38:33;152527.0;;;14.93;48.81
33913;BME280;20200;52.084;5.224;2023-02-22T07:40:10;152364.0;;;14.29;50.39
33913;BME280;20200;52.084;5.224;2023-02-22T07:43:26;152440.0;;;14.59;49.67
33913;BME280;20200;52.084;5.224;2023-02-22T07:45:04;152484.0;;;14.76;49.33
33913;BME280;20200;52.084;5.224;2023-02-22T07:46:40;152542.0;;;14.99;48.86
33913;BME280;20200;52.084;5.224;2023-02-22T07:49:56;152544.0;;;15.0;48.86
33913;BME280;20200;52.084;5.224;2023-02-22T07:51:32;152185.0;;;13.58;52.35
33913;BME280;20200;52.084;5.224;2023-02-22T07:53:11;152251.0;;;13.83;51.84
33913;BME280;20200;52.084;5.224;2023-02-22T07:54:51;152327.0;;;14.14;50.78
33913;BME280;20200;52.084;5.224;2023-02-22T07:58:05;152311.0;;;14.07;51.34
33913;BME280;20200;52.084;5.224;2023-02-22T07:59:44;152451.0;;;14.63;49.83
33913;BME280;20200;52.084;5.224;2023-02-22T08:01:21;152495.0;;;14.81;49.61
33913;BME280;20200;52.084;5.224;2023-02-22T08:04:35;152488.0;;;14.78;49.66
33913;BME280;20200;52.084;5.224;2023-02-22T08:06:11;152464.0;;;14.68;49.87
33913;BME280;20200;52.084;5.224;2023-02-22T08:07:47;152389.0;;;14.39;50.31
33913;BME280;20200;52.084;5.224;2023-02-22T08:09:24;152457.0;;;14.66;50.04
33913;BME280;20200;52.084;5.224;2023-02-22T08:12:37;152440.0;;;14.59;50.28
33913;BME280;20200;52.084;5.224;2023-02-22T08:14:14;152416.0;;;14.49;50.44
33913;BME280;20200;52.084;5.224;2023-02-22T08:15:52;152463.0;;;14.68;50.09
33913;BME280;20200;52.084;5.224;2023-02-22T08:19:05;152385.0;;;14.37;50.91
33913;BME280;20200;52.084;5.224;2023-02-22T08:20:42;152373.0;;;14.32;50.95
33913;BME280;20200;52.084;5.224;2023-02-22T08:22:20;152503.0;;;14.84;49.72
33913;BME280;20200;52.084;5.224;2023-02-22T08:25:34;152473.0;;;14.72;50.01
33913;BME280;20200;52.084;5.224;2023-02-22T08:27:11;152555.0;;;15.05;49.23
33913;BME280;20200;52.084;5.224;2023-02-22T08:28:47;152607.0;;;15.25;48.8
33913;BME280;20200;52.084;5.224;2023-02-22T08:30:24;152515.0;;;14.89;49.58
33913;BME280;20200;52.084;5.224;2023-02-22T08:33:36;152500.0;;;14.83;49.66
33913;BME280;20200;52.084;5.224;2023-02-22T08:35:14;152413.0;;;14.48;50.51
33913;BME280;20200;52.084;5.224;2023-02-22T08:36:52;152446.0;;;14.61;50.36
33913;BME280;20200;52.084;5.224;2023-02-22T08:40:08;152321.0;;;14.11;51.6
33913;BME280;20200;52.084;5.224;2023-02-22T08:41:44;152372.0;;;14.32;51.38
33913;BME280;20200;52.084;5.224;2023-02-22T08:43:22;152357.0;;;14.26;51.42
33913;BME280;20200;52.084;5.224;2023-02-22T08:44:58;152372.0;;;14.32;51.54
33913;BME280;20200;52.084;5.224;2023-02-22T08:48:11;152571.0;;;15.11;49.84
33913;BME280;20200;52.084;5.224;2023-02-22T08:49:48;152437.0;;;14.58;50.92
33913;BME280;20200;52.084;5.224;2023-02-22T08:51:24;152590.0;;;15.19;49.51
33913;BME280;20200;52.084;5.224;2023-02-22T08:54:40;152630.0;;;15.34;49.3
33913;BME280;20200;52.084;5.224;2023-02-22T08:56:16;152599.0;;;15.22;49.32
33913;BME280;20200;52.084;5.224;2023-02-22T08:57:52;152670.0;;;15.5;48.92
33913;BME280;20200;52.084;5.224;2023-02-22T09:01:05;152499.0;;;14.82;50.53
33913;BME280;20200;52.084;5.224;2023-02-22T09:02:41;152556.0;;;15.05;49.85
33913;BME280;20200;52.084;5.224;2023-02-22T09:04:18;152611.0;;;15.27;49.33
33913;BME280;20200;52.084;5.224;2023-02-22T09:05:54;152602.0;;;15.23;49.41
33913;BME280;20200;52.084;5.224;2023-02-22T09:09:08;152628.0;;;15.34;49.09
33913;BME280;20200;52.084;5.224;2023-02-22T09:10:45;152613.0;;;15.27;49.33
33913;BME280;20200;52.084;5.224;2023-02-22T09:12:22;152638.0;;;15.38;49.0
33913;BME280;20200;52.084;5.224;2023-02-22T09:15:36;152708.0;;;15.65;48.68
33913;BME280;20200;52.084;5.224;2023-02-22T09:17:12;152703.0;;;15.63;48.59
33913;BME280;20200;52.084;5.224;2023-02-22T09:18:48;152694.0;;;15.6;48.67
33913;BME280;20200;52.084;5.224;2023-02-22T09:22:03;152634.0;;;15.36;49.4
33913;BME280;20200;52.084;5.224;2023-02-22T09:23:40;152728.0;;;15.73;48.54
33913;BME280;20200;52.084;5.224;2023-02-22T09:25:17;152708.0;;;15.65;48.47
33913;BME280;20200;52.084;5.224;2023-02-22T09:26:54;152704.0;;;15.64;48.7
33913;BME280;20200;52.084;5.224;2023-02-22T09:30:08;152728.0;;;15.73;48.64
33913;BME280;20200;52.084;5.224;2023-02-22T09:31:54;152788.0;;;15.97;48.11
33913;BME280;20200;52.084;5.224;2023-02-22T09:33:31;152752.0;;;15.83;48.41
33913;BME280;20200;52.084;5.224;2023-02-22T09:36:46;152737.0;;;15.77;48.37
33913;BME280;20200;52.084;5.224;2023-02-22T09:38:25;152740.0;;;15.78;48.46
33913;BME280;20200;52.084;5.224;2023-02-22T09:40:01;152836.0;;;16.16;47.92
33913;BME280;20200;52.084;5.224;2023-02-22T09:41:42;152882.0;;;16.34;47.52
33913;BME280;20200;52.084;5.224;2023-02-22T09:45:15;152882.0;;;16.34;47.51
33913;BME280;20200;52.084;5.224;2023-02-22T09:46:56;152956.0;;;16.64;47.19
33913;BME280;20200;52.084;5.224;2023-02-22T09:48:35;152992.0;;;16.78;46.88
33913;BME280;20200;52.084;5.224;2023-02-22T09:50:21;153025.0;;;16.91;46.73
33913;BME280;20200;52.084;5.224;2023-02-22T09:52:01;153003.0;;;16.82;46.81
33913;BME280;20200;52.084;5.224;2023-02-22T09:55:30;153043.0;;;16.98;46.49
33913;BME280;20200;52.084;5.224;2023-02-22T09:57:13;153033.0;;;16.95;46.45
33913;BME280;20200;52.084;5.224;2023-02-22T09:58:54;153021.0;;;16.9;46.77
33913;BME280;20200;52.084;5.224;2023-02-22T10:00:36;153118.0;;;17.28;46.0
33913;BME280;20200;52.084;5.224;2023-02-22T10:04:04;153116.0;;;17.27;46.04
33913;BME280;20200;52.084;5.224;2023-02-22T10:05:51;153124.0;;;17.31;45.89
33913;BME280;20200;52.084;5.224;2023-02-22T10:07:32;153124.0;;;17.31;45.35
33913;BME280;20200;52.084;5.224;2023-02-22T10:09:10;153178.0;;;17.52;45.13
33913;BME280;20200;52.084;5.224;2023-02-22T10:10:58;153101.0;;;17.21;45.6
33913;BME280;20200;52.084;5.224;2023-02-22T10:14:45;153160.0;;;17.45;44.93
33913;BME280;20200;52.084;5.224;2023-02-22T10:16:34;153145.0;;;17.39;45.01
33913;BME280;20200;52.084;5.224;2023-02-22T10:19:00;153212.0;;;17.66;44.86
33913;BME280;20200;52.084;5.224;2023-02-22T10:20:49;153104.0;;;17.23;45.23
33913;BME280;20200;52.084;5.224;2023-02-22T10:22:37;153015.0;;;16.87;45.52
33913;BME280;20200;52.084;5.224;2023-02-22T10:24:28;153025.0;;;16.91;46.04
33913;BME280;20200;52.084;5.224;2023-02-22T10:26:14;153146.0;;;17.39;45.01
33913;BME280;20200;52.084;5.224;2023-02-22T10:27:55;153071.0;;;17.09;44.97
33913;BME280;20200;52.084;5.224;2023-02-22T10:31:19;153107.0;;;17.25;44.97
33913;BME280;20200;52.084;5.224;2023-02-22T10:33:03;153113.0;;;17.27;44.84
33913;BME280;20200;52.084;5.224;2023-02-22T10:34:47;153238.0;;;17.77;44.03
33913;BME280;20200;52.084;5.224;2023-02-22T10:36:25;153143.0;;;17.38;44.83
33913;BME280;20200;52.084;5.224;2023-02-22T10:38:11;153121.0;;;17.29;44.94
33913;BME280;20200;52.084;5.224;2023-02-22T10:41:41;153040.0;;;16.97;45.21
33913;BME280;20200;52.084;5.224;2023-02-22T10:43:22;153093.0;;;17.18;45.5
33913;BME280;20200;52.084;5.224;2023-02-22T10:44:59;153212.0;;;17.66;44.67
33913;BME280;20200;52.084;5.224;2023-02-22T10:46:36;153146.0;;;17.39;45.06
33913;BME280;20200;52.084;5.224;2023-02-22T10:49:56;153156.0;;;17.43;44.94
33913;BME280;20200;52.084;5.224;2023-02-22T10:51:34;153124.0;;;17.31;45.24
33913;BME280;20200;52.084;5.224;2023-02-22T10:53:12;153048.0;;;17.02;45.67
33913;BME280;20200;52.084;5.224;2023-02-22T10:54:50;153046.0;;;17.0;46.01
33913;BME280;20200;52.084;5.224;2023-02-22T10:58:07;153101.0;;;17.21;45.69
33913;BME280;20200;52.084;5.224;2023-02-22T10:59:44;153257.0;;;17.84;44.44
33913;BME280;20200;52.084;5.224;2023-02-22T11:01:24;152985.0;;;16.75;45.91
33913;BME280;20200;52.084;5.224;2023-02-22T11:03:05;153066.0;;;17.09;45.41
33913;BME280;20200;52.084;5.224;2023-02-22T11:06:31;153055.0;;;17.03;45.39
33913;BME280;20200;52.084;5.224;2023-02-22T11:08:21;153015.0;;;16.87;45.73
33913;BME280;20200;52.084;5.224;2023-02-22T11:10:00;153164.0;;;17.46;44.73
33913;BME280;20200;52.084;5.224;2023-02-22T11:11:40;153177.0;;;17.52;44.66